Soaring Guidance
Issued by NWS Reno, NV

Home | Current Version | Previous Version | Text Only | Print | Product List | Glossary On
Versions: 1 2 3 4 5 6 7 8 9 10 11 12 13 14
989
UXUS97 KREV 291310
SRGREV

SOARING FORECAST
NATIONAL WEATHER SERVICE - RENO NV
700 AM PDT THU JUN 29 2017

THIS SOARING FORECAST IS FOR THE EASTERN SIERRA AND WESTERN NEVADA
WITH SPECIFIC INDICES FOR THE GREATER RENO AREA.

THIS FORECAST IS PREPARED DAILY BY 700 AM AND IS NOT UPDATED.

FOR CURRENT FLIGHT CONDITIONS...FORECASTS...AND ADVISORIES...ACCESS
YOUR LOCAL BRIEFING OUTLET OR FLIGHT SERVICE STATION.

*******************************************************************
FORECASTED LOCAL INDICES FOR RENO:        TODAY     YESTERDAY
FORECASTED MAX TEMP AT RENO (DEG F).....     93          91
FORECASTED TRIGGER TEMPERATURE (DEG F)..     71          70
   EXCEEDED YESTERDAY BY 955 AM PDT
FORECASTED MAXIMUM ALTITUDE (FT MSL)....  13400       16700
FORECASTED SOARING INDEX (FPM)..........    582         981
FORECASTED K-INDEX.........VALID 18Z....      2           1
FORECASTED K-INDEX.........VALID 00Z....      8          12
FORECASTED LIFTED INDEX....VALID 18Z....      7           8
FORECASTED LIFTED INDEX....VALID 00Z....      4           5

AFTERNOON WINDS ALOFT FORECAST
MSL (FT) WIND/TEMP
9000  3107/+16
10000 3007/+13
12000 3007/+07
14000 3009/+02
16000 3012/-02
18000 3021/-07
24000 2920/-20
30000 2935/-36
34000 2848/-45
39000 2879/-51

SLIDE MOUNTAIN DATA:
     DATE       TIME     TEMP  DEWPT   RH         WIND (MPH)
                        (F)   (F)           | DIR  SPEED GUST
2017-06-29    04:50      48    35     51    | 114    0    0
2017-06-29    04:30      48    35     51    | 113    0    0
2017-06-29    04:20      49    34     46    | 054    0    0
2017-06-29    04:00      49    34     45    | 054    0    0

RENO TAF FORECAST:
KRNO 291120Z 2912/3012 VRB04KT P6SM SKC
     FM292200 30011KT P6SM SKC
     FM300400 VRB04KT P6SM SKC

CARSON CITY TAF FORECAST:
KCXP 291120Z 2912/3012 VRB03KT P6SM SKC
     FM292200 26011KT P6SM SKC
     FM300300 VRB03KT P6SM SKC

OUTLOOK FOR THE RENO-CARSON CITY-MINDEN AREA:
.FRIDAY...SUNNY. HIGHS 94 TO 99. LIGHT WINDS.

SUNRISE AND SUNSET
JUNE 29 2017..........SUNRISE   535 AM PDT   SUNSET   830 PM PDT
JUNE 30 2017..........SUNRISE   535 AM PDT   SUNSET   830 PM PDT



USA.gov is the U.S. government's official web portal to all federal, state and local government web resources and services.